Wetterdaten: Woche 20.06.05 - 26.06.05 (KW25)
Datum Zeit Temperatur Luftfeuchte Luftdruck Niederschlag Wind Richtung Sonne Solar Taupunkt Windchill
20.06.2005 00:00 16.8 C 65 % 1017.3 hPa 0.0 l/m 2.2 km/h (1 Bft) SO 0.00 h 0 W/m 10.2 C 16.8 C
20.06.2005 01:00 15.5 C 70 % 1017.5 hPa 0.0 l/m 2.5 km/h (1 Bft) O-SO 0.00 h 0 W/m 10.0 C 15.5 C
20.06.2005 02:00 14.8 C 72 % 1017.6 hPa 0.0 l/m 4.9 km/h (1 Bft) O-SO 0.00 h 0 W/m 9.9 C 14.8 C
20.06.2005 03:00 13.5 C 78 % 1017.7 hPa 0.0 l/m 3.0 km/h (1 Bft) O-SO 0.00 h 0 W/m 9.8 C 13.5 C
20.06.2005 04:00 13.0 C 80 % 1017.8 hPa 0.0 l/m 2.4 km/h (1 Bft) O-SO 0.00 h 0 W/m 9.6 C 13.0 C
20.06.2005 05:00 12.1 C 84 % 1017.9 hPa 0.0 l/m 0.8 km/h (0 Bft) O-SO 0.10 h 15 W/m 9.5 C 12.1 C
20.06.2005 06:00 12.4 C 85 % 1017.9 hPa 0.0 l/m 0.8 km/h (0 Bft) SO 0.00 h 41 W/m 9.9 C 12.4 C
20.06.2005 07:00 14.9 C 78 % 1017.5 hPa 0.0 l/m 0.0 km/h (0 Bft) N 0.80 h 269 W/m 11.1 C 14.9 C
20.06.2005 08:00 17.9 C 69 % 1017.2 hPa 0.0 l/m 0.6 km/h (0 Bft) O-NO 1.00 h 447 W/m 11.9 C 17.9 C
20.06.2005 09:00 21.8 C 51 % 1016.7 hPa 0.0 l/m 9.4 km/h (2 Bft) O-SO 1.00 h 588 W/m 11.2 C 21.8 C
20.06.2005 10:00 24.2 C 45 % 1016.0 hPa 0.0 l/m 9.5 km/h (2 Bft) O-SO 1.00 h 709 W/m 11.6 C 24.2 C
20.06.2005 11:00 26.0 C 42 % 1015.1 hPa 0.0 l/m 10.6 km/h (2 Bft) O-SO 1.00 h 802 W/m 12.2 C 26.0 C
20.06.2005 12:00 27.3 C 38 % 1014.9 hPa 0.0 l/m 7.9 km/h (2 Bft) O-SO 1.00 h 851 W/m 11.5 C 27.3 C
20.06.2005 13:00 29.0 C 35 % 1014.7 hPa 0.0 l/m 16.2 km/h (3 Bft) O-SO 1.00 h 868 W/m 12.0 C 29.0 C
20.06.2005 14:00 30.5 C 31 % 1014.0 hPa 0.0 l/m 10.3 km/h (2 Bft) O-SO 1.00 h 850 W/m 11.1 C 30.5 C
20.06.2005 15:00 31.3 C 25 % 1013.4 hPa 0.0 l/m 8.5 km/h (2 Bft) O-SO 1.00 h 795 W/m 8.8 C 31.3 C
20.06.2005 16:00 31.7 C 20 % 1013.4 hPa 0.0 l/m 8.7 km/h (2 Bft) O-SO 1.00 h 708 W/m 5.9 C 31.7 C
20.06.2005 17:00 31.5 C 20 % 1012.6 hPa 0.0 l/m 15.0 km/h (3 Bft) O-SO 1.00 h 589 W/m 5.8 C 31.5 C
20.06.2005 18:00 30.3 C 25 % 1012.6 hPa 0.0 l/m 16.6 km/h (3 Bft) O-SO 1.00 h 452 W/m 7.7 C 30.3 C
20.06.2005 19:00 29.2 C 31 % 1012.6 hPa 0.0 l/m 7.8 km/h (2 Bft) O-SO 1.00 h 302 W/m 10.2 C 29.2 C
20.06.2005 20:00 27.5 C 36 % 1013.8 hPa 0.0 l/m 0.3 km/h (0 Bft) SO 0.93 h 129 W/m 10.9 C 27.5 C
20.06.2005 21:00 23.9 C 48 % 1014.3 hPa 0.0 l/m 1.4 km/h (1 Bft) SO 0.28 h 21 W/m 12.0 C 23.9 C
20.06.2005 22:00 21.3 C 57 % 1015.6 hPa 0.0 l/m 3.5 km/h (1 Bft) O-SO 0.00 h 0 W/m 12.3 C 21.3 C
20.06.2005 23:00 18.7 C 68 % 1016.0 hPa 0.0 l/m 0.6 km/h (0 Bft) O-SO 0.00 h 0 W/m 12.7 C 18.7 C
21.06.2005 00:00 17.5 C 74 % 1016.6 hPa 0.0 l/m 3.9 km/h (1 Bft) O-SO 0.00 h 0 W/m 12.8 C 17.5 C
21.06.2005 01:00 16.5 C 79 % 1016.5 hPa 0.0 l/m 3.2 km/h (1 Bft) O-SO 0.00 h 0 W/m 12.8 C 16.5 C
21.06.2005 02:00 15.3 C 85 % 1017.5 hPa 0.0 l/m 0.4 km/h (0 Bft) O-SO 0.00 h 0 W/m 12.7 C 15.3 C
21.06.2005 03:00 14.4 C 88 % 1017.6 hPa 0.0 l/m 3.0 km/h (1 Bft) O-SO 0.00 h 0 W/m 12.5 C 14.4 C
21.06.2005 04:00 13.7 C 91 % 1017.7 hPa 0.0 l/m 1.0 km/h (0 Bft) O 0.00 h 0 W/m 12.3 C 13.7 C
21.06.2005 05:00 13.4 C 93 % 1017.7 hPa 0.0 l/m 0.6 km/h (0 Bft) O-SO 0.20 h 16 W/m 12.3 C 13.4 C
21.06.2005 06:00 13.8 C 92 % 1017.7 hPa 0.0 l/m 0.2 km/h (0 Bft) O 0.00 h 58 W/m 12.6 C 13.8 C
21.06.2005 07:00 16.0 C 85 % 1018.3 hPa 0.0 l/m 0.0 km/h (0 Bft) N 0.77 h 226 W/m 13.4 C 16.0 C
21.06.2005 08:00 18.0 C 75 % 1018.2 hPa 0.0 l/m 0.1 km/h (0 Bft) O 1.00 h 419 W/m 13.4 C 18.0 C
21.06.2005 09:00 20.6 C 65 % 1017.8 hPa 0.0 l/m 0.9 km/h (0 Bft) W-NW 1.00 h 582 W/m 13.7 C 20.6 C
21.06.2005 10:00 23.5 C 57 % 1017.5 hPa 0.0 l/m 2.5 km/h (1 Bft) W-NW 1.00 h 705 W/m 14.4 C 23.5 C
21.06.2005 11:00 26.2 C 48 % 1016.5 hPa 0.0 l/m 5.0 km/h (1 Bft) O-SO 1.00 h 796 W/m 14.4 C 26.2 C
21.06.2005 12:00 28.2 C 41 % 1015.9 hPa 0.0 l/m 3.8 km/h (1 Bft) O-SO 1.00 h 816 W/m 13.5 C 28.2 C
21.06.2005 13:00 29.9 C 34 % 1015.7 hPa 0.0 l/m 4.4 km/h (1 Bft) SW 1.00 h 853 W/m 12.1 C 29.9 C
21.06.2005 14:00 31.3 C 32 % 1015.5 hPa 0.0 l/m 2.7 km/h (1 Bft) W-NW 1.00 h 815 W/m 12.8 C 31.3 C
21.06.2005 15:00 31.7 C 33 % 1015.0 hPa 0.0 l/m 1.5 km/h (1 Bft) O-SO 1.00 h 649 W/m 13.2 C 31.7 C
21.06.2005 16:00 32.3 C 33 % 1014.3 hPa 0.0 l/m 2.8 km/h (1 Bft) O-SO 1.00 h 656 W/m 13.9 C 32.3 C
21.06.2005 17:00 32.2 C 35 % 1014.3 hPa 0.0 l/m 3.3 km/h (1 Bft) O-SO 0.80 h 443 W/m 14.6 C 32.2 C
21.06.2005 18:00 31.0 C 39 % 1014.5 hPa 0.0 l/m 0.1 km/h (0 Bft) N 0.73 h 268 W/m 15.3 C 31.0 C
21.06.2005 19:00 31.0 C 43 % 1014.5 hPa 0.0 l/m 0.7 km/h (0 Bft) SO 1.00 h 243 W/m 16.7 C 31.0 C
21.06.2005 20:00 29.0 C 50 % 1015.0 hPa 0.0 l/m 2.1 km/h (1 Bft) O-SO 0.97 h 118 W/m 17.5 C 29.0 C
21.06.2005 21:00 25.2 C 61 % 1016.2 hPa 0.0 l/m 4.4 km/h (1 Bft) O-SO 0.27 h 21 W/m 17.2 C 25.2 C
21.06.2005 22:00 22.3 C 72 % 1017.1 hPa 0.0 l/m 4.3 km/h (1 Bft) O-SO 0.00 h 0 W/m 17.0 C 22.3 C
21.06.2005 23:00 20.4 C 78 % 1017.9 hPa 0.0 l/m 1.3 km/h (1 Bft) O-SO 0.00 h 0 W/m 16.4 C 20.4 C
22.06.2005 00:00 18.3 C 88 % 1018.2 hPa 0.0 l/m 1.9 km/h (1 Bft) O-SO 0.00 h 0 W/m 16.3 C 18.3 C
22.06.2005 01:00 17.6 C 90 % 1018.7 hPa 0.0 l/m 2.0 km/h (1 Bft) O-SO 0.00 h 0 W/m 15.9 C 17.6 C
22.06.2005 02:00 16.9 C 92 % 1019.4 hPa 0.0 l/m 1.3 km/h (1 Bft) O-SO 0.00 h 0 W/m 15.6 C 16.9 C
22.06.2005 03:00 16.5 C 94 % 1019.4 hPa 0.0 l/m 1.9 km/h (1 Bft) O-SO 0.00 h 0 W/m 15.5 C 16.5 C
22.06.2005 04:00 15.9 C 95 % 1019.5 hPa 0.0 l/m 0.2 km/h (0 Bft) O-SO 0.00 h 0 W/m 15.0 C 15.9 C
22.06.2005 05:00 15.6 C 98 % 1019.8 hPa 0.0 l/m 0.5 km/h (0 Bft) O-SO 0.07 h 12 W/m 15.2 C 15.6 C
22.06.2005 06:00 16.0 C 96 % 1020.4 hPa 0.0 l/m 0.0 km/h (0 Bft) N 0.00 h 52 W/m 15.3 C 16.0 C
22.06.2005 07:00 17.8 C 88 % 1020.3 hPa 0.0 l/m 0.0 km/h (0 Bft) N 0.78 h 226 W/m 15.8 C 17.8 C
22.06.2005 08:00 19.8 C 77 % 1020.0 hPa 0.0 l/m 0.3 km/h (0 Bft) O 1.00 h 393 W/m 15.5 C 19.8 C
22.06.2005 09:00 22.2 C 66 % 1019.7 hPa 0.0 l/m 1.1 km/h (1 Bft) O 1.00 h 524 W/m 15.6 C 22.2 C
22.06.2005 10:00 24.4 C 61 % 1019.4 hPa 0.0 l/m 0.9 km/h (0 Bft) N-NW 1.00 h 675 W/m 16.3 C 24.4 C
22.06.2005 11:00 26.7 C 55 % 1019.2 hPa 0.0 l/m 1.3 km/h (1 Bft) NW 1.00 h 776 W/m 16.8 C 26.7 C
22.06.2005 12:00 28.7 C 47 % 1018.8 hPa 0.0 l/m 3.2 km/h (1 Bft) NW 1.00 h 846 W/m 16.4 C 28.7 C
22.06.2005 13:00 30.2 C 45 % 1017.8 hPa 0.0 l/m 4.3 km/h (1 Bft) NW 0.73 h 697 W/m 17.0 C 30.2 C
22.06.2005 14:00 28.8 C 50 % 1017.9 hPa 0.0 l/m 8.6 km/h (2 Bft) W-NW 0.37 h 341 W/m 17.2 C 28.8 C
22.06.2005 15:00 27.8 C 56 % 1018.0 hPa 0.0 l/m 0.9 km/h (0 Bft) NW 0.00 h 183 W/m 18.3 C 27.8 C
22.06.2005 16:00 29.1 C 54 % 1017.8 hPa 0.0 l/m 0.3 km/h (0 Bft) W-NW 0.93 h 491 W/m 18.7 C 29.1 C
22.06.2005 17:00 29.4 C 54 % 1017.4 hPa 0.0 l/m 2.2 km/h (1 Bft) O-SO 1.00 h 347 W/m 19.1 C 29.4 C
22.06.2005 18:00 29.4 C 56 % 1016.8 hPa 0.0 l/m 6.4 km/h (2 Bft) O-SO 1.00 h 301 W/m 19.7 C 29.4 C
22.06.2005 19:00 29.0 C 57 % 1016.8 hPa 0.0 l/m 6.5 km/h (2 Bft) O-SO 1.00 h 198 W/m 19.5 C 29.0 C
22.06.2005 20:00 27.3 C 62 % 1018.0 hPa 0.0 l/m 5.8 km/h (2 Bft) O-SO 1.00 h 81 W/m 19.3 C 27.3 C
22.06.2005 21:00 25.1 C 63 % 1018.3 hPa 0.0 l/m 4.0 km/h (1 Bft) O-SO 0.23 h 15 W/m 17.5 C 25.1 C
22.06.2005 22:00 22.8 C 69 % 1019.3 hPa 0.0 l/m 0.9 km/h (0 Bft) O-SO 0.00 h 0 W/m 16.8 C 22.8 C
22.06.2005 23:00 22.0 C 71 % 1019.7 hPa 0.0 l/m 0.1 km/h (0 Bft) O-SO 0.00 h 0 W/m 16.4 C 22.0 C
23.06.2005 00:00 20.9 C 71 % 1019.9 hPa 0.0 l/m 0.0 km/h (0 Bft) N 0.00 h 0 W/m 15.5 C 20.9 C
23.06.2005 01:00 19.8 C 75 % 1020.0 hPa 0.0 l/m 0.2 km/h (0 Bft) O-SO 0.00 h 0 W/m 15.2 C 19.8 C
23.06.2005 02:00 18.3 C 82 % 1020.2 hPa 0.0 l/m 0.0 km/h (0 Bft) N 0.00 h 0 W/m 15.1 C 18.3 C
23.06.2005 03:00 17.2 C 85 % 1020.4 hPa 0.0 l/m 0.0 km/h (0 Bft) N 0.00 h 0 W/m 14.7 C 17.2 C
23.06.2005 04:00 16.4 C 87 % 1020.5 hPa 0.0 l/m 0.0 km/h (0 Bft) N 0.00 h 0 W/m 14.3 C 16.4 C
23.06.2005 05:00 15.8 C 89 % 1020.6 hPa 0.0 l/m 0.0 km/h (0 Bft) N 0.18 h 16 W/m 14.0 C 15.8 C
23.06.2005 06:00 16.2 C 86 % 1021.2 hPa 0.0 l/m 0.0 km/h (0 Bft) N 0.00 h 58 W/m 13.9 C 16.2 C
23.06.2005 07:00 17.7 C 78 % 1021.3 hPa 0.0 l/m 0.0 km/h (0 Bft) N 0.82 h 240 W/m 13.8 C 17.7 C
23.06.2005 08:00 20.0 C 67 % 1021.0 hPa 0.0 l/m 0.2 km/h (0 Bft) NW 1.00 h 413 W/m 13.7 C 20.0 C
23.06.2005 09:00 22.7 C 56 % 1020.7 hPa 0.0 l/m 4.1 km/h (1 Bft) O-SO 0.98 h 524 W/m 13.4 C 22.7 C
23.06.2005 10:00 24.3 C 54 % 1020.1 hPa 0.0 l/m 2.0 km/h (1 Bft) O-SO 1.02 h 655 W/m 14.2 C 24.3 C
23.06.2005 11:00 26.5 C 51 % 1019.2 hPa 0.0 l/m 7.1 km/h (2 Bft) O-SO 1.00 h 775 W/m 15.5 C 26.5 C
23.06.2005 12:00 28.3 C 47 % 1018.5 hPa 0.0 l/m 8.5 km/h (2 Bft) O-SO 1.00 h 829 W/m 15.8 C 28.3 C
23.06.2005 13:00 29.7 C 45 % 1017.6 hPa 0.0 l/m 8.0 km/h (2 Bft) O-SO 1.00 h 845 W/m 16.5 C 29.7 C
23.06.2005 14:00 31.0 C 41 % 1016.8 hPa 0.0 l/m 4.5 km/h (1 Bft) O-SO 0.98 h 832 W/m 16.0 C 31.0 C
23.06.2005 15:00 32.2 C 36 % 1016.3 hPa 0.0 l/m 8.2 km/h (2 Bft) O-SO 1.02 h 778 W/m 15.3 C 32.2 C
23.06.2005 16:00 33.1 C 33 % 1015.3 hPa 0.0 l/m 3.9 km/h (1 Bft) O-SO 0.98 h 676 W/m 14.8 C 33.1 C
23.06.2005 17:00 32.9 C 36 % 1014.7 hPa 0.0 l/m 10.7 km/h (2 Bft) O-SO 1.00 h 557 W/m 15.7 C 32.9 C
23.06.2005 18:00 30.4 C 44 % 1014.6 hPa 0.0 l/m 12.0 km/h (2 Bft) O-SO 0.43 h 246 W/m 16.7 C 30.4 C
23.06.2005 19:00 27.6 C 57 % 1015.1 hPa 0.0 l/m 8.7 km/h (2 Bft) O-SO 0.00 h 86 W/m 18.2 C 27.6 C
23.06.2005 20:00 27.4 C 59 % 1015.0 hPa 0.0 l/m 0.3 km/h (0 Bft) SO 0.90 h 90 W/m 18.5 C 27.4 C
23.06.2005 21:00 24.9 C 66 % 1016.3 hPa 0.0 l/m 3.7 km/h (1 Bft) O-SO 0.27 h 15 W/m 18.0 C 24.9 C
23.06.2005 22:00 22.8 C 72 % 1016.5 hPa 0.0 l/m 8.1 km/h (2 Bft) O-SO 0.00 h 0 W/m 17.4 C 22.8 C
23.06.2005 23:00 21.8 C 76 % 1016.7 hPa 0.0 l/m 5.5 km/h (1 Bft) O-SO 0.00 h 0 W/m 17.3 C 21.8 C
24.06.2005 00:00 20.7 C 81 % 1017.0 hPa 0.0 l/m 2.8 km/h (1 Bft) O-SO 0.00 h 0 W/m 17.3 C 20.7 C
24.06.2005 01:00 20.1 C 83 % 1017.5 hPa 0.0 l/m 1.4 km/h (1 Bft) O-SO 0.00 h 0 W/m 17.1 C 20.1 C
24.06.2005 02:00 19.4 C 88 % 1017.0 hPa 0.0 l/m 1.0 km/h (0 Bft) O-SO 0.00 h 0 W/m 17.3 C 19.4 C
24.06.2005 03:00 18.7 C 90 % 1017.0 hPa 0.0 l/m 0.1 km/h (0 Bft) O-SO 0.00 h 0 W/m 17.0 C 18.7 C
24.06.2005 04:00 17.9 C 93 % 1017.2 hPa 0.0 l/m 2.5 km/h (1 Bft) O-SO 0.00 h 0 W/m 16.8 C 17.9 C
24.06.2005 05:00 17.5 C 97 % 1017.2 hPa 0.0 l/m 3.4 km/h (1 Bft) O-SO 0.00 h 12 W/m 17.0 C 17.5 C
24.06.2005 06:00 17.8 C 92 % 1017.2 hPa 0.0 l/m 2.8 km/h (1 Bft) O-SO 0.00 h 47 W/m 16.4 C 17.8 C
24.06.2005 07:00 19.1 C 86 % 1017.0 hPa 0.0 l/m 0.1 km/h (0 Bft) N 0.77 h 203 W/m 16.8 C 19.1 C
24.06.2005 08:00 21.2 C 77 % 1016.7 hPa 0.0 l/m 1.4 km/h (1 Bft) SO 1.00 h 393 W/m 17.0 C 21.2 C
24.06.2005 09:00 23.6 C 66 % 1016.4 hPa 0.0 l/m 1.3 km/h (1 Bft) O-SO 1.00 h 525 W/m 16.9 C 23.6 C
24.06.2005 10:00 25.5 C 58 % 1015.8 hPa 0.0 l/m 3.1 km/h (1 Bft) O-SO 0.97 h 622 W/m 16.6 C 25.5 C
24.06.2005 11:00 27.6 C 53 % 1014.9 hPa 0.0 l/m 2.3 km/h (1 Bft) O-SO 1.00 h 759 W/m 17.2 C 27.6 C
24.06.2005 12:00 29.8 C 48 % 1014.0 hPa 0.0 l/m 5.0 km/h (1 Bft) O-SO 1.00 h 814 W/m 17.4 C 29.8 C
24.06.2005 13:00 31.6 C 44 % 1013.4 hPa 0.0 l/m 8.4 km/h (2 Bft) O-SO 1.00 h 818 W/m 17.8 C 31.6 C
24.06.2005 14:00 32.9 C 40 % 1012.9 hPa 0.0 l/m 8.3 km/h (2 Bft) O-SO 1.00 h 766 W/m 17.3 C 32.9 C
24.06.2005 15:00 34.0 C 33 % 1012.1 hPa 0.0 l/m 11.5 km/h (2 Bft) W-NW 1.00 h 784 W/m 15.6 C 34.0 C
24.06.2005 16:00 34.7 C 32 % 1011.6 hPa 0.0 l/m 7.1 km/h (2 Bft) NW 0.97 h 631 W/m 15.3 C 34.7 C
24.06.2005 17:00 34.1 C 35 % 1011.0 hPa 0.0 l/m 16.7 km/h (3 Bft) W-NW 1.00 h 523 W/m 16.4 C 34.1 C
24.06.2005 18:00 32.2 C 41 % 1011.2 hPa 0.0 l/m 9.3 km/h (2 Bft) NW 0.23 h 212 W/m 17.0 C 32.2 C
24.06.2005 19:00 30.0 C 50 % 1011.5 hPa 0.0 l/m 13.6 km/h (3 Bft) W-NW 0.00 h 107 W/m 18.4 C 30.0 C
24.06.2005 20:00 28.5 C 56 % 1011.7 hPa 0.0 l/m 1.1 km/h (0 Bft) NO 0.00 h 41 W/m 18.9 C 28.5 C
24.06.2005 21:00 26.4 C 65 % 1013.0 hPa 0.0 l/m 0.1 km/h (0 Bft) N 0.00 h 6 W/m 19.4 C 26.4 C
24.06.2005 22:00 26.0 C 61 % 1013.9 hPa 0.0 l/m 11.6 km/h (2 Bft) SO 0.00 h 0 W/m 17.9 C 26.0 C
24.06.2005 23:00 19.9 C 76 % 1016.1 hPa 3.9 l/m 13.5 km/h (3 Bft) O-SO 0.00 h 0 W/m 15.3 C 19.9 C
25.06.2005 00:00 19.1 C 95 % 1018.0 hPa 1.6 l/m 10.3 km/h (2 Bft) O-SO 0.00 h 0 W/m 18.2 C 19.1 C
25.06.2005 01:00 18.9 C 98 % 1017.8 hPa 0.0 l/m 0.6 km/h (0 Bft) O-SO 0.00 h 0 W/m 18.5 C 18.9 C
25.06.2005 02:00 18.6 C 100 % 1017.1 hPa 0.0 l/m 1.1 km/h (0 Bft) O-SO 0.00 h 0 W/m 18.6 C 18.6 C
25.06.2005 03:00 18.0 C 100 % 1017.0 hPa 0.0 l/m 4.0 km/h (1 Bft) O-SO 0.00 h 0 W/m 18.0 C 18.0 C
25.06.2005 04:00 17.3 C 100 % 1016.2 hPa 0.0 l/m 2.2 km/h (1 Bft) O-SO 0.00 h 0 W/m 17.3 C 17.3 C
25.06.2005 05:00 16.9 C 100 % 1016.7 hPa 0.3 l/m 1.4 km/h (1 Bft) O-SO 0.00 h 11 W/m 16.9 C 16.9 C
25.06.2005 06:00 17.0 C 100 % 1017.3 hPa 0.0 l/m 1.3 km/h (1 Bft) O-SO 0.00 h 52 W/m 17.0 C 17.0 C
25.06.2005 07:00 17.8 C 100 % 1017.2 hPa 0.0 l/m 0.0 km/h (0 Bft) N 0.23 h 134 W/m 17.8 C 17.8 C
25.06.2005 08:00 19.3 C 96 % 1017.0 hPa 0.0 l/m 0.0 km/h (0 Bft) N 0.53 h 302 W/m 18.6 C 19.3 C
25.06.2005 09:00 20.0 C 92 % 1017.2 hPa 0.0 l/m 0.2 km/h (0 Bft) SO 0.13 h 254 W/m 18.6 C 20.0 C
25.06.2005 10:00 20.9 C 87 % 1017.8 hPa 0.0 l/m 1.3 km/h (1 Bft) SW 0.40 h 422 W/m 18.6 C 20.9 C
25.06.2005 11:00 21.5 C 86 % 1017.7 hPa 0.0 l/m 0.7 km/h (0 Bft) O-SO 0.33 h 388 W/m 19.1 C 21.5 C
25.06.2005 12:00 23.8 C 75 % 1016.7 hPa 0.0 l/m 4.8 km/h (1 Bft) O-SO 0.97 h 800 W/m 19.1 C 23.8 C
25.06.2005 13:00 25.7 C 65 % 1016.2 hPa 0.0 l/m 8.5 km/h (2 Bft) SO 0.83 h 746 W/m 18.6 C 25.7 C
25.06.2005 14:00 27.2 C 58 % 1016.0 hPa 0.0 l/m 9.2 km/h (2 Bft) W-NW 0.67 h 697 W/m 18.2 C 27.2 C
25.06.2005 15:00 25.6 C 59 % 1016.6 hPa 0.0 l/m 13.8 km/h (3 Bft) W-NW 0.10 h 217 W/m 17.0 C 25.6 C
25.06.2005 16:00 23.4 C 69 % 1017.2 hPa 0.0 l/m 4.7 km/h (1 Bft) SO 0.30 h 296 W/m 17.3 C 23.4 C
25.06.2005 17:00 26.0 C 62 % 1016.1 hPa 0.0 l/m 7.6 km/h (2 Bft) O-SO 1.00 h 666 W/m 18.1 C 26.0 C
25.06.2005 18:00 27.4 C 56 % 1016.0 hPa 0.0 l/m 3.8 km/h (1 Bft) SO 1.00 h 450 W/m 17.9 C 27.4 C
25.06.2005 19:00 27.5 C 57 % 1016.0 hPa 0.0 l/m 2.1 km/h (1 Bft) W-SW 0.97 h 275 W/m 18.1 C 27.5 C
25.06.2005 20:00 26.1 C 66 % 1016.9 hPa 0.0 l/m 0.1 km/h (0 Bft) S 0.80 h 99 W/m 19.2 C 26.1 C
25.06.2005 21:00 23.3 C 70 % 1017.5 hPa 0.0 l/m 2.3 km/h (1 Bft) O-SO 0.03 h 9 W/m 17.5 C 23.3 C
25.06.2005 22:00 21.7 C 75 % 1017.9 hPa 0.0 l/m 6.4 km/h (2 Bft) SO 0.00 h 0 W/m 17.0 C 21.7 C
25.06.2005 23:00 21.1 C 74 % 1018.8 hPa 0.0 l/m 1.1 km/h (1 Bft) SO 0.00 h 0 W/m 16.3 C 21.1 C
26.06.2005 00:00 20.0 C 80 % 1019.6 hPa 0.0 l/m 4.1 km/h (1 Bft) O-SO 0.00 h 0 W/m 16.3 C 20.0 C
26.06.2005 01:00 19.1 C 85 % 1020.1 hPa 0.0 l/m 5.3 km/h (1 Bft) O-SO 0.00 h 0 W/m 16.6 C 19.1 C
26.06.2005 02:00 18.3 C 90 % 1020.2 hPa 0.0 l/m 2.1 km/h (1 Bft) O-SO 0.00 h 0 W/m 16.6 C 18.3 C
26.06.2005 03:00 17.4 C 95 % 1020.3 hPa 0.0 l/m 0.5 km/h (0 Bft) O-SO 0.00 h 0 W/m 16.6 C 17.4 C
26.06.2005 04:00 16.9 C 98 % 1020.5 hPa 0.0 l/m 0.8 km/h (0 Bft) O-SO 0.00 h 0 W/m 16.5 C 16.9 C
26.06.2005 05:00 16.3 C 99 % 1021.3 hPa 0.0 l/m 0.6 km/h (0 Bft) O-SO 0.10 h 14 W/m 16.2 C 16.3 C
26.06.2005 06:00 16.9 C 96 % 1020.8 hPa 0.0 l/m 0.0 km/h (0 Bft) N 0.00 h 55 W/m 16.3 C 16.9 C
26.06.2005 07:00 18.3 C 93 % 1021.3 hPa 0.0 l/m 0.0 km/h (0 Bft) N 0.80 h 218 W/m 17.0 C 18.3 C
26.06.2005 08:00 19.9 C 85 % 1021.0 hPa 0.0 l/m 0.2 km/h (0 Bft) SW 1.00 h 402 W/m 17.2 C 19.9 C
26.06.2005 09:00 22.0 C 75 % 1020.9 hPa 0.0 l/m 2.7 km/h (1 Bft) W-NW 1.00 h 552 W/m 17.4 C 22.0 C
26.06.2005 10:00 24.0 C 67 % 1020.6 hPa 0.0 l/m 2.6 km/h (1 Bft) W-NW 1.00 h 686 W/m 17.4 C 24.0 C
26.06.2005 11:00 26.1 C 60 % 1020.5 hPa 0.0 l/m 2.7 km/h (1 Bft) O-SO 1.02 h 785 W/m 17.8 C 26.1 C
26.06.2005 12:00 27.9 C 53 % 1020.0 hPa 0.0 l/m 2.4 km/h (1 Bft) S-SO 1.00 h 840 W/m 17.3 C 27.9 C
26.06.2005 13:00 29.2 C 47 % 1019.9 hPa 0.0 l/m 4.5 km/h (1 Bft) O-SO 1.00 h 865 W/m 16.7 C 29.2 C
26.06.2005 14:00 30.0 C 43 % 1019.6 hPa 0.0 l/m 3.7 km/h (1 Bft) W-NW 0.75 h 752 W/m 16.1 C 30.0 C
26.06.2005 15:00 31.1 C 44 % 1018.6 hPa 0.0 l/m 4.1 km/h (1 Bft) W-NW 0.90 h 746 W/m 17.3 C 31.1 C
26.06.2005 16:00 31.8 C 40 % 1018.5 hPa 0.0 l/m 3.8 km/h (1 Bft) O-SO 1.00 h 667 W/m 16.5 C 31.8 C
26.06.2005 17:00 32.4 C 35 % 1017.9 hPa 0.0 l/m 0.3 km/h (0 Bft) N-NW 1.00 h 572 W/m 15.0 C 32.4 C
26.06.2005 18:00 32.4 C 35 % 1017.4 hPa 0.0 l/m 0.8 km/h (0 Bft) O-NO 1.00 h 415 W/m 14.8 C 32.4 C
26.06.2005 19:00 30.9 C 42 % 1017.6 hPa 0.0 l/m 0.3 km/h (0 Bft) O-NO 0.60 h 186 W/m 16.6 C 30.9 C
26.06.2005 20:00 28.4 C 50 % 1018.4 hPa 0.0 l/m 2.5 km/h (1 Bft) NO 0.53 h 53 W/m 16.8 C 28.4 C
26.06.2005 21:00 26.1 C 60 % 1018.9 hPa 0.0 l/m 2.3 km/h (1 Bft) N-NO 0.30 h 16 W/m 17.6 C 26.1 C
26.06.2005 22:00 23.7 C 70 % 1019.5 hPa 0.0 l/m 0.3 km/h (0 Bft) O 0.00 h 0 W/m 18.0 C 23.7 C
26.06.2005 23:00 22.1 C 78 % 1020.3 hPa 0.0 l/m 0.3 km/h (0 Bft) O 0.00 h 0 W/m 18.1 C 22.1 C
Min-Datum _ 20.06.05 20.06.05 24.06.05 - 20.06.05 - - - 20.06.05 20.06.05
_ Min-Zeit 06:18 14:46 16:42 - 00:32 - - - 18:43 06:18
Minimum _ 11.8 C 20 % 1010.9 hPa - 0.0 km/h (0 Bft) - - - 4.7 C 11.8 C
Max-Datum _ 24.06.05 25.06.05 26.06.05 24.06.05 24.06.05 - 20.06.05 25.06.05 22.06.05 24.06.05
_ Max-Zeit 16:42 02:04 09:40 23:02 22:52 - 13:03 13:36 18:48 16:42
Maximum _ 35.1 C 100 % 1021.8 hPa 3.9 l/m 41.3 km/h
SO (6 Bft)
- 0.05 h 990 W/m 20.4 C 35.1 C
Durchschnitt _ 23.4 C 66 % 1017.2 hPa #5.8 l/m 3.6 km/h (1 Bft) O-SO #84:47 h 427 W/m 15.5 C 23.4 C

Durchschnitt Minimum Temp.22.6 C
Durchschnitt Maximum Temp.24.2 C
© Kaiko 2005